createdAt,value
2023-04-16T00:00:31.580Z,1.95
2023-04-16T00:03:17.058Z,1.42
2023-04-16T00:06:02.856Z,1.90
2023-04-16T00:08:48.426Z,1.48
2023-04-16T00:11:33.744Z,1.35
2023-04-16T00:14:19.165Z,1.85
2023-04-16T00:17:05.047Z,1.60
2023-04-16T00:19:50.779Z,1.58
2023-04-16T00:22:36.157Z,1.90
2023-04-16T00:25:21.746Z,1.45
2023-04-16T00:28:08.032Z,1.80
2023-04-16T00:30:55.502Z,1.50
2023-04-16T00:33:40.786Z,1.73
2023-04-16T00:36:27.486Z,1.80
2023-04-16T00:39:12.880Z,2.10
2023-04-16T00:41:58.104Z,1.85
2023-04-16T00:44:43.492Z,1.48
2023-04-16T00:47:29.198Z,1.35
2023-04-16T00:50:15.023Z,1.65
2023-04-16T00:53:01.876Z,1.85
2023-04-16T00:55:47.133Z,2.35
2023-04-16T00:58:34.274Z,1.42
2023-04-16T01:01:19.869Z,1.73
2023-04-16T01:04:07.344Z,1.88
2023-04-16T01:06:52.842Z,2.00
2023-04-16T01:09:38.114Z,2.08
2023-04-16T01:12:23.991Z,1.98
2023-04-16T01:15:11.464Z,1.58
2023-04-16T01:17:56.935Z,1.95
2023-04-16T01:20:42.987Z,2.50
2023-04-16T01:23:28.879Z,1.95
2023-04-16T01:26:14.293Z,2.88
2023-04-16T01:29:01.309Z,3.00
2023-04-16T01:31:46.971Z,3.17
2023-04-16T01:34:44.361Z,3.10
2023-04-16T01:37:30.723Z,2.92
2023-04-16T01:40:16.380Z,3.20
2023-04-16T01:43:02.504Z,2.88
2023-04-16T01:45:48.204Z,2.10
2023-04-16T01:48:33.734Z,1.95
2023-04-16T01:51:19.747Z,2.50
2023-04-16T01:54:05.573Z,2.25
2023-04-16T01:56:51.059Z,1.90
2023-04-16T01:59:36.507Z,1.90
2023-04-16T02:02:25.705Z,1.70
2023-04-16T02:05:13.261Z,1.90
2023-04-16T02:07:58.638Z,1.42
2023-04-16T02:10:47.279Z,1.38
2023-04-16T02:13:32.738Z,1.30
2023-04-16T02:16:18.218Z,1.90
2023-04-16T02:19:12.045Z,1.90
2023-04-16T02:21:58.822Z,1.67
2023-04-16T02:24:44.102Z,1.27
2023-04-16T02:27:30.164Z,1.55
2023-04-16T02:30:27.346Z,1.67
2023-04-16T02:33:13.422Z,1.67
2023-04-16T02:36:08.063Z,1.52
2023-04-16T02:38:53.862Z,1.63
2023-04-16T02:41:39.307Z,1.48
2023-04-16T02:44:24.696Z,1.55
2023-04-16T02:47:10.185Z,1.83
2023-04-16T02:49:55.607Z,1.42
2023-04-16T02:52:40.887Z,1.63
2023-04-16T02:55:26.352Z,1.55
2023-04-16T02:58:11.927Z,1.70
2023-04-16T03:00:57.338Z,1.88
2023-04-16T03:03:42.976Z,1.90
2023-04-16T03:06:28.713Z,1.65
2023-04-16T03:09:15.133Z,1.95
2023-04-16T03:12:01.863Z,1.85
2023-04-16T03:14:47.210Z,2.70
2023-04-16T03:17:32.759Z,2.25
2023-04-16T03:20:19.238Z,2.33
2023-04-16T03:23:04.859Z,2.00
2023-04-16T03:25:50.397Z,2.70
2023-04-16T03:28:36.901Z,2.28
2023-04-16T03:31:24.610Z,2.03
2023-04-16T03:34:11.420Z,2.05
2023-04-16T03:36:58.926Z,1.58
2023-04-16T03:39:44.794Z,2.33
2023-04-16T03:42:31.318Z,1.83
2023-04-16T03:45:17.006Z,1.90
2023-04-16T03:48:04.051Z,2.30
2023-04-16T03:50:49.579Z,2.25
2023-04-16T03:53:37.792Z,2.80
2023-04-16T03:56:23.746Z,2.65
2023-04-16T03:59:11.169Z,2.60
2023-04-16T04:01:56.929Z,2.20
2023-04-16T04:04:42.855Z,2.20
2023-04-16T04:07:29.598Z,2.10
2023-04-16T04:10:16.901Z,2.25
2023-04-16T04:13:04.527Z,2.00
2023-04-16T04:15:51.380Z,1.88
2023-04-16T04:18:37.072Z,1.60
2023-04-16T04:21:24.224Z,1.90
2023-04-16T04:24:09.878Z,1.67
2023-04-16T04:26:55.351Z,1.77
2023-04-16T04:29:40.876Z,1.63
2023-04-16T04:32:26.148Z,1.65
2023-04-16T04:35:11.986Z,1.80
2023-04-16T04:37:57.213Z,1.48
2023-04-16T04:40:42.603Z,1.88
2023-04-16T04:43:28.020Z,1.50
2023-04-16T04:46:13.329Z,1.70
2023-04-16T04:48:59.557Z,1.80
2023-04-16T04:51:45.472Z,1.55
2023-04-16T04:54:31.787Z,1.80
2023-04-16T04:57:17.494Z,2.47
2023-04-16T05:00:04.480Z,1.70
2023-04-16T05:02:58.384Z,3.33
2023-04-16T05:05:43.783Z,1.90
2023-04-16T05:08:29.235Z,1.52
2023-04-16T05:11:14.405Z,2.55
2023-04-16T05:14:00.289Z,2.22
2023-04-16T05:16:45.705Z,2.08
2023-04-16T05:19:30.927Z,2.42
2023-04-16T05:22:19.032Z,2.67
2023-04-16T05:25:04.601Z,1.98
2023-04-16T05:27:49.903Z,2.55
2023-04-16T05:30:35.258Z,2.17
2023-04-16T05:33:21.023Z,2.33
2023-04-16T05:36:06.576Z,2.45
2023-04-16T05:38:51.999Z,2.00
2023-04-16T05:41:37.425Z,1.63
2023-04-16T05:44:22.893Z,2.55
2023-04-16T05:47:09.564Z,2.22
2023-04-16T05:49:55.024Z,2.30
2023-04-16T05:52:40.362Z,2.60
2023-04-16T05:55:26.096Z,2.33
2023-04-16T05:58:11.716Z,2.20
2023-04-16T06:00:57.078Z,2.50
2023-04-16T06:03:42.586Z,2.38
2023-04-16T06:06:28.285Z,2.30
2023-04-16T06:09:13.865Z,1.90
2023-04-16T06:11:59.949Z,2.83
2023-04-16T06:14:45.393Z,2.08
2023-04-16T06:17:30.792Z,3.08
2023-04-16T06:20:16.108Z,2.08
2023-04-16T06:23:01.423Z,2.35
2023-04-16T06:25:46.749Z,2.53
2023-04-16T06:28:32.192Z,2.42
2023-04-16T06:31:17.730Z,2.08
2023-04-16T06:34:03.005Z,2.20
2023-04-16T06:36:48.498Z,2.00
2023-04-16T06:39:33.649Z,2.42
2023-04-16T06:42:18.961Z,2.63
2023-04-16T06:45:04.820Z,2.45
2023-04-16T06:47:51.253Z,2.42
2023-04-16T06:50:36.589Z,2.85
2023-04-16T06:53:22.119Z,3.47
2023-04-16T06:56:08.279Z,2.60
2023-04-16T06:58:53.790Z,2.28
2023-04-16T07:01:39.106Z,3.55
2023-04-16T07:04:24.518Z,2.60
2023-04-16T07:07:09.903Z,3.38
2023-04-16T07:09:55.126Z,3.13
2023-04-16T07:12:40.848Z,3.45
2023-04-16T07:15:26.773Z,2.80
2023-04-16T07:18:12.262Z,2.75
2023-04-16T07:20:57.774Z,3.22
2023-04-16T07:23:43.250Z,3.30
2023-04-16T07:26:29.016Z,3.35
2023-04-16T07:29:14.279Z,3.13
2023-04-16T07:31:59.696Z,3.47
2023-04-16T07:34:46.822Z,3.25
2023-04-16T07:37:32.354Z,3.42
2023-04-16T07:40:17.913Z,3.58
2023-04-16T07:43:03.371Z,3.78
2023-04-16T07:45:49.051Z,2.85
2023-04-16T07:48:34.492Z,3.10
2023-04-16T07:51:19.830Z,3.30
2023-04-16T07:54:05.202Z,4.07
2023-04-16T07:56:50.488Z,4.65
2023-04-16T07:59:35.991Z,4.47
2023-04-16T08:02:21.766Z,3.83
2023-04-16T08:05:08.069Z,3.55
2023-04-16T08:07:53.765Z,3.60
2023-04-16T08:10:39.676Z,3.65
2023-04-16T08:13:25.125Z,3.78
2023-04-16T08:16:10.570Z,3.35
2023-04-16T08:18:55.924Z,3.22
2023-04-16T08:21:41.450Z,3.00
2023-04-16T08:24:26.931Z,3.25
2023-04-16T08:27:19.317Z,3.55
2023-04-16T08:30:06.410Z,2.40
2023-04-16T08:32:52.141Z,2.72
2023-04-16T08:35:37.372Z,2.75
2023-04-16T08:38:22.872Z,3.38
2023-04-16T08:41:12.227Z,3.22
2023-04-16T08:44:00.487Z,3.00
2023-04-16T08:46:49.880Z,4.32
2023-04-16T08:49:42.325Z,2.75
2023-04-16T08:52:31.430Z,2.63
2023-04-16T08:55:19.948Z,3.05
2023-04-16T08:58:13.969Z,2.65
2023-04-16T09:00:59.774Z,2.33
2023-04-16T09:03:48.514Z,2.13
2023-04-16T09:06:35.227Z,3.80
2023-04-16T09:09:22.388Z,2.30
2023-04-16T09:12:08.995Z,2.83
2023-04-16T09:14:57.043Z,2.05
2023-04-16T09:17:42.621Z,2.13
2023-04-16T09:20:27.870Z,2.65
2023-04-16T09:23:13.418Z,2.10
2023-04-16T09:25:59.737Z,2.28
2023-04-16T09:28:50.955Z,2.70
2023-04-16T09:31:36.925Z,2.42
2023-04-16T09:34:22.502Z,2.17
2023-04-16T09:37:17.857Z,2.72
2023-04-16T09:40:04.714Z,2.33
2023-04-16T09:42:50.560Z,2.13
2023-04-16T09:45:51.537Z,1.75
2023-04-16T09:48:37.147Z,2.63
2023-04-16T09:51:22.582Z,2.15
2023-04-16T09:54:08.524Z,2.15
2023-04-16T09:56:57.085Z,1.98
2023-04-16T09:59:42.374Z,2.00
2023-04-16T10:02:28.964Z,1.77
2023-04-16T10:05:16.950Z,2.30
2023-04-16T10:08:02.802Z,1.77
2023-04-16T10:10:48.468Z,1.90
2023-04-16T10:13:33.916Z,1.67
2023-04-16T10:16:19.564Z,1.70
2023-04-16T10:19:04.914Z,2.03
2023-04-16T10:21:50.379Z,1.73
2023-04-16T10:24:36.015Z,1.70
2023-04-16T10:27:21.583Z,2.10
2023-04-16T10:30:09.174Z,1.65
2023-04-16T10:32:56.326Z,2.10
2023-04-16T10:35:52.402Z,1.65
2023-04-16T10:38:49.639Z,2.15
2023-04-16T10:41:35.069Z,2.42
2023-04-16T10:44:20.436Z,1.60
2023-04-16T10:47:14.013Z,1.83
2023-04-16T10:49:59.755Z,1.95
2023-04-16T10:52:45.839Z,2.08
2023-04-16T10:55:31.418Z,2.45
2023-04-16T10:58:30.358Z,1.98
2023-04-16T11:01:16.610Z,1.42
2023-04-16T11:04:22.364Z,1.42
2023-04-16T11:07:21.078Z,1.63
2023-04-16T11:10:07.530Z,1.92
2023-04-16T11:12:54.884Z,2.05
2023-04-16T11:15:40.659Z,1.40
2023-04-16T11:18:26.524Z,1.35
2023-04-16T11:21:12.848Z,2.10
2023-04-16T11:23:58.283Z,1.67
2023-04-16T11:26:43.703Z,1.67
2023-04-16T11:29:29.164Z,2.28
2023-04-16T11:32:22.539Z,2.55
2023-04-16T11:35:16.726Z,1.85
2023-04-16T11:38:02.380Z,1.35
2023-04-16T11:40:50.032Z,1.80
2023-04-16T11:43:35.789Z,1.50
2023-04-16T11:46:27.430Z,1.30
2023-04-16T11:49:13.974Z,1.55
2023-04-16T11:52:00.049Z,1.58
2023-04-16T11:54:50.767Z,1.35
2023-04-16T11:57:36.434Z,2.45
2023-04-16T12:00:24.352Z,1.35
2023-04-16T12:03:10.504Z,1.45
2023-04-16T12:06:07.958Z,1.90
2023-04-16T12:08:53.494Z,1.85
2023-04-16T12:11:42.731Z,1.90
2023-04-16T12:14:28.869Z,1.60
2023-04-16T12:17:21.236Z,1.50
2023-04-16T12:20:12.445Z,1.60
2023-04-16T12:23:01.477Z,1.67
2023-04-16T12:25:49.998Z,1.55
2023-04-16T12:28:38.623Z,2.22
2023-04-16T12:31:39.709Z,1.88
2023-04-16T12:34:29.096Z,1.52
2023-04-16T12:37:30.707Z,1.77
2023-04-16T12:40:16.425Z,1.70
2023-04-16T12:43:02.181Z,1.52
2023-04-16T12:45:47.588Z,1.73
2023-04-16T12:48:33.873Z,2.30
2023-04-16T12:51:19.399Z,1.70
2023-04-16T12:54:07.488Z,1.70
2023-04-16T12:56:52.930Z,1.38
2023-04-16T12:59:38.306Z,2.00
2023-04-16T13:02:25.018Z,0.98
2023-04-16T13:05:10.602Z,1.00
2023-04-16T13:07:56.160Z,1.20
2023-04-16T13:10:41.841Z,1.75
2023-04-16T13:13:27.041Z,0.95
2023-04-16T13:16:12.747Z,1.25
2023-04-16T13:18:58.288Z,1.02
2023-04-16T13:21:43.796Z,1.23
2023-04-16T13:24:30.660Z,1.38
2023-04-16T13:27:16.951Z,1.33
2023-04-16T13:30:02.298Z,1.00
2023-04-16T13:32:47.641Z,0.77
2023-04-16T13:35:33.366Z,1.90
2023-04-16T13:38:18.730Z,1.08
2023-04-16T13:41:05.850Z,1.25
2023-04-16T13:44:00.190Z,1.20
2023-04-16T13:46:52.254Z,0.70
2023-04-16T13:50:04.039Z,0.98
2023-04-16T13:53:03.086Z,1.70
2023-04-16T13:56:05.796Z,1.70
2023-04-16T14:00:03.466Z,1.50
2023-04-16T14:14:06.096Z,1.17
2023-04-16T14:16:51.687Z,1.30
2023-04-16T14:19:37.214Z,1.27
2023-04-16T14:22:22.847Z,1.10
2023-04-16T14:25:08.495Z,1.42
2023-04-16T14:27:54.046Z,1.58
2023-04-16T14:30:39.464Z,1.55
2023-04-16T14:33:24.669Z,1.55
2023-04-16T14:36:10.204Z,1.40
2023-04-16T14:38:55.559Z,1.20
2023-04-16T14:41:44.097Z,1.40
2023-04-16T14:44:29.788Z,1.38
2023-04-16T14:47:15.193Z,1.20
2023-04-16T14:50:03.766Z,1.30
2023-04-16T14:52:50.431Z,1.65
2023-04-16T14:55:35.795Z,1.95
2023-04-16T14:58:21.977Z,1.65
2023-04-16T15:01:07.701Z,1.80
2023-04-16T15:03:55.999Z,2.25
2023-04-16T15:06:41.972Z,1.75
2023-04-16T15:09:27.703Z,2.10
2023-04-16T15:12:13.472Z,2.33
2023-04-16T15:14:59.978Z,1.90
2023-04-16T15:17:45.408Z,2.00
2023-04-16T15:20:31.244Z,1.92
2023-04-16T15:23:16.688Z,2.00
2023-04-16T15:26:02.030Z,2.17
2023-04-16T15:28:47.395Z,2.50
2023-04-16T15:31:32.747Z,2.30
2023-04-16T15:34:18.440Z,1.60
2023-04-16T15:37:04.004Z,1.90
2023-04-16T15:39:49.944Z,1.75
2023-04-16T15:42:35.701Z,1.48
2023-04-16T15:45:21.388Z,1.33
2023-04-16T15:48:07.192Z,1.42
2023-04-16T15:50:54.288Z,1.27
2023-04-16T15:53:39.606Z,1.55
2023-04-16T15:56:25.827Z,1.40
2023-04-16T15:59:11.513Z,1.17
2023-04-16T16:01:57.394Z,1.55
2023-04-16T16:04:46.114Z,1.30
2023-04-16T16:07:32.077Z,1.38
2023-04-16T16:10:17.619Z,1.27
2023-04-16T16:13:05.487Z,1.20
2023-04-16T16:15:51.400Z,1.45
2023-04-16T16:18:37.150Z,1.50
2023-04-16T16:21:22.948Z,2.20
2023-04-16T16:24:08.568Z,2.08
2023-04-16T16:26:54.201Z,2.08
2023-04-16T16:29:39.561Z,2.08
2023-04-16T16:32:24.972Z,2.63
2023-04-16T16:35:11.441Z,2.38
2023-04-16T16:37:57.411Z,2.22
2023-04-16T16:40:42.873Z,2.15
2023-04-16T16:43:28.366Z,2.40
2023-04-16T16:46:13.683Z,2.45
2023-04-16T16:48:59.012Z,3.08
2023-04-16T16:51:48.653Z,2.25
2023-04-16T16:54:34.242Z,2.38
2023-04-16T16:57:20.058Z,2.22
2023-04-16T17:00:12.020Z,2.20
2023-04-16T17:05:43.011Z,2.88
2023-04-16T17:08:29.103Z,1.88
2023-04-16T17:11:17.784Z,2.03
2023-04-16T17:14:03.159Z,1.65
2023-04-16T17:16:49.959Z,1.77
2023-04-16T17:19:35.083Z,1.88
2023-04-16T17:22:20.518Z,1.85
2023-04-16T17:25:07.720Z,1.92
2023-04-16T17:27:52.904Z,2.25
2023-04-16T17:30:38.414Z,2.35
2023-04-16T17:33:23.736Z,2.20
2023-04-16T17:36:09.174Z,2.80
2023-04-16T17:38:54.456Z,2.67
2023-04-16T17:41:39.657Z,2.33
2023-04-16T17:44:27.492Z,2.42
2023-04-16T17:47:12.835Z,2.05
2023-04-16T17:49:58.190Z,2.28
2023-04-16T17:52:43.753Z,2.30
2023-04-16T17:55:30.791Z,2.47
2023-04-16T17:58:16.392Z,2.42
2023-04-16T18:01:06.040Z,2.80
2023-04-16T18:03:51.506Z,2.35
2023-04-16T18:06:37.139Z,2.72
2023-04-16T18:09:22.409Z,3.03
2023-04-16T18:12:08.321Z,2.38
2023-04-16T18:14:53.704Z,2.67
2023-04-16T18:17:39.044Z,2.50
2023-04-16T18:20:25.026Z,2.92
2023-04-16T18:23:10.721Z,3.05
2023-04-16T18:25:56.035Z,2.70
2023-04-16T18:28:42.349Z,2.75
2023-04-16T18:31:28.073Z,2.67
2023-04-16T18:34:13.688Z,2.60
2023-04-16T18:36:58.989Z,2.78
2023-04-16T18:39:44.347Z,2.78
2023-04-16T18:42:32.326Z,3.30
2023-04-16T18:45:21.963Z,2.60
2023-04-16T18:48:07.808Z,2.55
2023-04-16T18:50:53.206Z,3.50
2023-04-16T18:53:39.286Z,3.13
2023-04-16T18:56:24.913Z,3.08
2023-04-16T18:59:10.402Z,3.05
2023-04-16T19:01:56.262Z,3.03
2023-04-16T19:04:42.014Z,3.08
2023-04-16T19:07:27.586Z,2.83
2023-04-16T19:10:12.992Z,2.55
2023-04-16T19:12:58.645Z,2.70
2023-04-16T19:15:43.926Z,2.80
2023-04-16T19:18:29.375Z,3.15
2023-04-16T19:21:14.792Z,3.15
2023-04-16T19:24:00.057Z,3.05
2023-04-16T19:26:46.046Z,3.33
2023-04-16T19:29:35.147Z,3.33
2023-04-16T19:32:21.116Z,3.20
2023-04-16T19:35:07.075Z,2.78
2023-04-16T19:37:52.803Z,3.35
2023-04-16T19:40:38.570Z,3.53
2023-04-16T19:43:24.381Z,3.30
2023-04-16T19:46:10.018Z,3.28
2023-04-16T19:48:56.754Z,3.88
2023-04-16T19:51:42.297Z,3.70
2023-04-16T19:54:28.751Z,4.88
2023-04-16T19:57:14.197Z,3.25
2023-04-16T19:59:59.445Z,3.42
2023-04-16T20:02:45.081Z,3.90
2023-04-16T20:05:30.993Z,3.55
2023-04-16T20:08:16.898Z,5.75
2023-04-16T20:11:02.593Z,5.03
2023-04-16T20:13:48.227Z,3.92
2023-04-16T20:16:34.009Z,4.30
2023-04-16T20:19:19.664Z,4.47
2023-04-16T20:22:06.599Z,4.45
2023-04-16T20:24:54.902Z,3.38
2023-04-16T20:27:40.511Z,4.00
2023-04-16T20:30:29.454Z,4.35
2023-04-16T20:33:15.443Z,4.47
2023-04-16T20:36:01.240Z,4.85
2023-04-16T20:38:46.743Z,3.88
2023-04-16T20:41:32.190Z,3.88
2023-04-16T20:44:18.859Z,4.25
2023-04-16T20:47:05.172Z,4.30
2023-04-16T20:49:52.771Z,4.25
2023-04-16T20:52:38.536Z,4.28
2023-04-16T20:55:23.909Z,4.55
2023-04-16T20:58:09.653Z,4.88
2023-04-16T21:00:56.577Z,5.78
2023-04-16T21:03:42.486Z,5.93
2023-04-16T21:06:28.084Z,4.97
2023-04-16T21:09:13.523Z,6.30
2023-04-16T21:11:59.222Z,6.10
2023-04-16T21:14:44.440Z,6.80
2023-04-16T21:17:29.983Z,5.78
2023-04-16T21:20:15.753Z,7.32
2023-04-16T21:23:01.711Z,6.55
2023-04-16T21:25:47.355Z,7.43
2023-04-16T21:28:32.860Z,7.68
2023-04-16T21:31:18.297Z,8.98
2023-04-16T21:34:03.728Z,7.90
2023-04-16T21:36:49.330Z,8.30
2023-04-16T21:39:34.976Z,8.73
2023-04-16T21:42:20.513Z,8.23
2023-04-16T21:45:10.488Z,8.07
2023-04-16T21:47:56.269Z,8.10
2023-04-16T21:50:41.445Z,8.07
2023-04-16T21:53:32.076Z,8.35
2023-04-16T21:56:17.634Z,7.47
2023-04-16T21:59:03.022Z,8.60
2023-04-16T22:01:48.318Z,15.02
2023-04-16T22:04:40.096Z,11.68
2023-04-16T22:07:27.201Z,11.13
2023-04-16T22:10:14.910Z,10.70
2023-04-16T22:13:01.793Z,8.57
2023-04-16T22:15:47.307Z,7.65
2023-04-16T22:18:33.112Z,7.43
2023-04-16T22:21:19.116Z,7.55
2023-04-16T22:24:05.036Z,7.60
2023-04-16T22:26:50.713Z,6.32
2023-04-16T22:29:36.222Z,7.55
2023-04-16T22:32:21.718Z,7.15
2023-04-16T22:35:07.808Z,8.07
2023-04-16T22:37:53.102Z,7.88
2023-04-16T22:40:38.399Z,7.20
2023-04-16T22:43:24.008Z,6.60
2023-04-16T22:46:09.651Z,6.30
2023-04-16T22:48:55.318Z,6.13
2023-04-16T22:51:41.003Z,6.75
2023-04-16T22:54:30.879Z,6.97
2023-04-16T22:57:17.467Z,6.93
2023-04-16T23:00:06.401Z,6.47
2023-04-16T23:02:52.531Z,6.38
2023-04-16T23:05:37.998Z,6.07
2023-04-16T23:08:23.259Z,6.25
2023-04-16T23:11:08.603Z,6.35
2023-04-16T23:13:54.054Z,6.07
2023-04-16T23:16:40.067Z,5.75
2023-04-16T23:19:25.454Z,6.40
2023-04-16T23:22:12.387Z,6.10
2023-04-16T23:24:57.905Z,5.85
2023-04-16T23:27:43.329Z,6.00
2023-04-16T23:30:28.939Z,6.38
2023-04-16T23:33:14.375Z,4.90
2023-04-16T23:35:59.625Z,4.97
2023-04-16T23:38:44.937Z,5.00
2023-04-16T23:41:30.355Z,6.65
2023-04-16T23:44:16.552Z,5.30
2023-04-16T23:47:02.266Z,5.68
2023-04-16T23:49:48.108Z,6.10
2023-04-16T23:52:33.477Z,5.35
2023-04-16T23:55:19.388Z,5.80
2023-04-16T23:58:05.141Z,4.82
